Time;durP1;ratioP1;P1;durP2;ratioP2;P2;SDS_P1;SDS_P2;PMS_P1;PMS_P2;Temp;Humidity;BMP_temperature;BMP_pressure;BME280_temperature;BME280_humidity;BME280_pressure;Samples;Min_cycle;Max_cycle;Signal;HPM_P1;HPM_P2
2021/11/25 00:01:30;;;;;;;47.55;33.50;;;7.50;99.90;;;;;;5070444;28;20099;-75
2021/11/25 00:03:57;;;;;;;47.47;34.33;;;;;;;;;;5074942;28;20044;-74
2021/11/25 00:06:23;;;;;;;49.78;33.67;;;6.90;99.90;;;;;;5075246;28;20509;-74
2021/11/25 00:08:48;;;;;;;50.15;33.25;;;6.90;99.90;;;;;;5040790;28;20068;-75
2021/11/25 00:11:14;;;;;;;45.15;33.17;;;6.90;99.90;;;;;;5058046;28;20093;-77
2021/11/25 00:13:40;;;;;;;50.38;34.47;;;6.90;99.90;;;;;;5075166;28;20047;-76
2021/11/25 00:16:05;;;;;;;44.00;31.98;;;6.90;99.90;;;;;;5075420;28;20152;-76
2021/11/25 00:18:31;;;;;;;47.55;34.78;;;6.90;99.90;;;;;;5074962;28;20322;-76
2021/11/25 00:20:57;;;;;;;51.95;34.17;;;6.90;99.90;;;;;;5040930;28;20091;-74
2021/11/25 00:23:22;;;;;;;44.88;31.40;;;6.80;99.90;;;;;;5057061;28;20052;-74
2021/11/25 00:25:48;;;;;;;50.08;33.72;;;6.80;99.90;;;;;;5074869;28;20060;-73
2021/11/25 00:28:14;;;;;;;44.85;32.70;;;6.80;99.90;;;;;;5075246;28;20037;-74
2021/11/25 00:30:39;;;;;;;45.97;34.13;;;6.80;99.90;;;;;;5075028;28;20334;-74
2021/11/25 00:33:05;;;;;;;45.15;34.05;;;6.80;99.90;;;;;;5074974;28;20307;-73
2021/11/25 00:35:31;;;;;;;48.28;34.60;;;6.80;99.90;;;;;;5075144;28;20139;-74
2021/11/25 00:37:57;;;;;;;46.00;33.25;;;6.80;99.90;;;;;;5074569;28;20036;-74
2021/11/25 00:40:23;;;;;;;48.35;34.58;;;6.80;99.90;;;;;;5074955;28;20040;-73
2021/11/25 00:42:49;;;;;;;52.25;35.58;;;6.80;99.90;;;;;;5074663;28;20131;-75
2021/11/25 00:45:16;;;;;;;50.42;33.97;;;6.70;99.90;;;;;;5074494;28;20382;-75
2021/11/25 00:47:43;;;;;;;48.88;34.50;;;6.70;99.90;;;;;;5074576;28;20040;-75
2021/11/25 00:50:11;;;;;;;51.85;34.85;;;6.70;99.90;;;;;;5074751;28;20040;-75
2021/11/25 00:52:38;;;;;;;48.50;33.63;;;6.70;99.90;;;;;;5074382;28;20044;-74
2021/11/25 00:55:05;;;;;;;52.92;35.10;;;6.70;99.90;;;;;;5074932;28;20052;-74
2021/11/25 00:57:30;;;;;;;49.58;35.10;;;6.70;99.90;;;;;;5074483;28;20041;-73
2021/11/25 00:59:56;;;;;;;51.55;34.60;;;6.70;99.90;;;;;;5074074;28;20055;-74
2021/11/25 01:02:22;;;;;;;48.33;33.83;;;6.70;99.90;;;;;;5056914;28;20055;-74
2021/11/25 01:04:48;;;;;;;50.65;35.42;;;6.70;99.90;;;;;;5073795;28;20127;-74
2021/11/25 01:07:13;;;;;;;50.63;34.40;;;6.70;99.90;;;;;;5074491;28;20127;-74
2021/11/25 01:09:39;;;;;;;53.88;36.88;;;6.70;99.90;;;;;;5055100;28;20063;-75
2021/11/25 01:12:06;;;;;;;55.08;36.42;;;6.60;99.90;;;;;;5056410;28;20048;-74
2021/11/25 01:14:34;;;;;;;50.70;35.25;;;6.70;99.90;;;;;;5073794;28;20051;-75
2021/11/25 01:17:00;;;;;;;51.20;35.10;;;6.60;99.90;;;;;;5058389;28;20441;-73
2021/11/25 01:19:26;;;;;;;53.92;36.88;;;6.70;99.90;;;;;;5056640;28;20052;-74
2021/11/25 01:21:53;;;;;;;52.78;36.13;;;6.60;99.90;;;;;;5074144;28;20044;-73
2021/11/25 01:24:18;;;;;;;52.30;36.05;;;6.60;99.90;;;;;;5074081;28;20063;-74
2021/11/25 01:26:44;;;;;;;56.17;38.03;;;6.60;99.90;;;;;;5074064;28;20068;-74
2021/11/25 01:29:11;;;;;;;59.65;37.20;;;6.60;99.90;;;;;;5074066;28;20040;-74
2021/11/25 01:31:38;;;;;;;63.38;39.58;;;6.60;99.90;;;;;;5072953;28;20556;-74
2021/11/25 01:34:03;;;;;;;64.72;38.78;;;6.60;99.90;;;;;;5056373;28;20158;-75
2021/11/25 01:36:29;;;;;;;60.47;39.92;;;6.60;99.90;;;;;;5073944;28;20346;-76
2021/11/25 01:38:55;;;;;;;61.72;39.58;;;6.60;99.90;;;;;;5055872;28;20125;-76
2021/11/25 01:41:21;;;;;;;67.25;39.30;;;6.50;99.90;;;;;;5073981;28;20040;-73
2021/11/25 01:43:47;;;;;;;57.67;37.72;;;6.60;99.90;;;;;;5056317;28;20071;-73
2021/11/25 01:46:15;;;;;;;60.05;37.20;;;6.60;99.90;;;;;;5073808;28;20036;-75
2021/11/25 01:48:43;;;;;;;67.68;40.83;;;6.50;99.90;;;;;;5073446;28;20082;-74
2021/11/25 01:51:09;;;;;;;71.28;41.63;;;6.50;99.90;;;;;;5038895;28;20063;-76
2021/11/25 01:53:36;;;;;;;72.03;40.63;;;6.40;99.90;;;;;;5055819;28;20040;-78
2021/11/25 01:56:03;;;;;;;71.00;40.42;;;6.50;99.90;;;;;;5055979;28;20097;-74
2021/11/25 01:58:30;;;;;;;62.60;38.47;;;6.50;99.90;;;;;;5073707;28;20473;-73
2021/11/25 02:00:58;;;;;;;69.50;40.47;;;6.40;99.90;;;;;;5073144;28;20058;-75
2021/11/25 02:03:26;;;;;;;75.05;42.47;;;6.70;99.90;;;;;;5055710;28;20048;-75
2021/11/25 02:05:52;;;;;;;73.93;40.95;;;6.40;99.90;;;;;;5073878;28;20032;-75
2021/11/25 02:08:18;;;;;;;66.70;38.28;;;6.40;99.90;;;;;;5073654;28;20386;-74
2021/11/25 02:10:46;;;;;;;69.57;39.47;;;6.30;99.90;;;;;;5073339;28;20068;-76
2021/11/25 02:13:12;;;;;;;65.80;37.80;;;6.30;99.90;;;;;;5055470;28;20051;-75
2021/11/25 02:15:38;;;;;;;72.55;40.42;;;6.30;99.90;;;;;;5073555;28;20044;-73
2021/11/25 02:18:07;;;;;;;66.60;38.55;;;6.30;99.90;;;;;;5073453;28;20585;-76
2021/11/25 02:20:43;;;;;;;67.63;39.30;;;6.30;99.90;;;;;;5073538;28;20044;-75
2021/11/25 02:23:11;;;;;;;73.22;40.50;;;6.30;99.90;;;;;;5055309;28;20140;-76
2021/11/25 02:25:37;;;;;;;69.40;39.90;;;6.80;99.90;;;;;;5056015;28;20044;-74
2021/11/25 02:28:03;;;;;;;72.35;40.13;;;6.20;99.90;;;;;;5072850;28;20043;-75
2021/11/25 02:30:29;;;;;;;77.55;43.40;;;6.20;99.90;;;;;;5073156;28;20076;-75
2021/11/25 02:32:55;;;;;;;72.15;39.28;;;6.30;99.90;;;;;;5073193;28;20122;-73
2021/11/25 02:35:25;;;;;;;72.85;41.70;;;6.30;99.90;;;;;;5059172;28;20044;-73
2021/11/25 02:37:53;;;;;;;75.43;39.63;;;6.20;99.90;;;;;;5075258;28;20509;-75
2021/11/25 02:40:35;;;;;;;78.63;40.67;;;6.20;99.90;;;;;;5073249;28;20075;-75
2021/11/25 02:43:13;;;;;;;78.60;41.85;;;6.20;99.90;;;;;;5075640;28;20114;-74
2021/11/25 02:45:54;;;;;;;77.13;40.20;;;6.20;99.90;;;;;;5077397;28;20068;-74
2021/11/25 02:48:24;;;;;;;75.95;40.78;;;6.20;99.90;;;;;;5077230;28;20036;-75
2021/11/25 02:50:52;;;;;;;73.28;40.60;;;6.50;99.90;;;;;;5077079;28;20048;-76
2021/11/25 02:53:28;;;;;;;73.07;39.63;;;6.20;99.90;;;;;;5059236;28;20052;-75
2021/11/25 02:55:56;;;;;;;76.55;41.58;;;6.20;99.90;;;;;;5059359;28;20430;-74
2021/11/25 02:58:22;;;;;;;75.35;39.50;;;6.20;99.90;;;;;;5077032;28;20040;-73
2021/11/25 03:00:49;;;;;;;72.05;40.00;;;6.10;99.90;;;;;;5058221;28;20170;-75
2021/11/25 03:03:17;;;;;;;85.03;40.80;;;6.20;99.90;;;;;;5076803;28;20097;-75
2021/11/25 03:05:46;;;;;;;76.97;40.20;;;6.10;99.90;;;;;;5058922;28;20342;-73
2021/11/25 03:08:12;;;;;;;76.57;40.70;;;6.10;99.90;;;;;;5076693;28;20123;-73
2021/11/25 03:10:42;;;;;;;74.72;40.15;;;6.20;99.90;;;;;;5076458;28;20119;-75
2021/11/25 03:13:09;;;;;;;74.07;39.60;;;6.10;99.90;;;;;;5076429;28;20430;-75
2021/11/25 03:15:37;;;;;;;81.47;39.97;;;6.20;99.90;;;;;;5058700;28;20051;-75
2021/11/25 03:18:04;;;;;;;78.78;41.33;;;6.20;99.90;;;;;;5076656;28;20127;-73
2021/11/25 03:20:29;;;;;;;78.95;41.53;;;6.10;99.90;;;;;;5076493;28;20048;-75
2021/11/25 03:22:55;;;;;;;87.03;42.40;;;6.20;99.90;;;;;;5076305;28;20052;-75
2021/11/25 03:25:21;;;;;;;77.43;41.92;;;6.20;99.90;;;;;;5058645;28;20044;-74
2021/11/25 03:27:48;;;;;;;84.35;42.85;;;6.10;99.90;;;;;;5076412;28;20043;-76
2021/11/25 03:30:13;;;;;;;81.47;42.70;;;6.20;99.90;;;;;;5075949;28;20045;-76
2021/11/25 03:32:39;;;;;;;93.20;44.83;;;6.10;99.90;;;;;;5076015;28;20360;-72
2021/11/25 03:35:07;;;;;;;97.72;46.80;;;6.10;99.90;;;;;;5076259;28;20048;-75
2021/11/25 03:37:33;;;;;;;93.40;44.13;;;6.10;99.90;;;;;;5076292;28;20044;-74
2021/11/25 03:39:58;;;;;;;96.75;45.60;;;6.40;99.90;;;;;;5075880;28;20415;-77
2021/11/25 03:42:24;;;;;;;89.07;43.00;;;6.10;99.90;;;;;;5075871;28;20044;-75
2021/11/25 03:44:51;;;;;;;89.05;44.55;;;6.30;99.90;;;;;;5075800;28;20155;-75
2021/11/25 03:47:17;;;;;;;92.03;43.63;;;6.10;99.90;;;;;;5075837;28;20036;-73
2021/11/25 03:49:43;;;;;;;92.35;46.20;;;6.10;99.90;;;;;;5058324;28;20048;-74
2021/11/25 03:52:09;;;;;;;86.65;43.92;;;6.10;99.90;;;;;;5057827;28;20044;-76
2021/11/25 03:54:35;;;;;;;91.85;45.42;;;6.00;99.90;;;;;;5060809;28;20116;-73
2021/11/25 03:57:00;;;;;;;99.07;47.00;;;6.10;99.90;;;;;;5076300;28;20048;-74
2021/11/25 03:59:26;;;;;;;99.25;47.05;;;6.40;99.90;;;;;;5075756;28;20094;-72
2021/11/25 04:01:52;;;;;;;99.28;46.83;;;6.00;99.90;;;;;;5039860;28;20052;-74
2021/11/25 04:04:17;;;;;;;98.88;47.67;;;5.90;99.90;;;;;;5075708;28;20075;-75
2021/11/25 04:06:43;;;;;;;93.65;46.65;;;5.90;99.90;;;;;;5075661;28;20042;-74
2021/11/25 04:09:09;;;;;;;103.82;46.97;;;6.00;99.90;;;;;;5075221;28;20101;-75
2021/11/25 04:11:34;;;;;;;100.55;47.67;;;6.00;99.90;;;;;;5075168;28;20044;-73
2021/11/25 04:14:03;;;;;;;91.90;46.28;;;5.80;99.90;;;;;;5075431;28;20358;-74
2021/11/25 04:16:30;;;;;;;95.15;45.95;;;5.80;99.90;;;;;;5074765;28;20063;-75
2021/11/25 04:18:56;;;;;;;93.15;46.15;;;5.80;99.90;;;;;;5075361;28;20044;-75
2021/11/25 04:21:22;;;;;;;107.78;50.05;;;5.80;99.90;;;;;;5075221;28;20444;-75
2021/11/25 04:23:47;;;;;;;92.82;46.25;;;5.80;99.90;;;;;;5057696;28;20066;-74
2021/11/25 04:26:13;;;;;;;99.95;47.72;;;5.70;99.90;;;;;;5075427;28;20119;-76
2021/11/25 04:28:39;;;;;;;96.60;47.97;;;5.70;99.90;;;;;;5075179;28;20041;-74
2021/11/25 04:36:33;;;;;;;100.97;47.97;;;5.60;99.90;;;;;;5075331;28;20048;-74
2021/11/25 04:38:59;;;;;;;103.07;48.95;;;5.50;99.90;;;;;;5074889;28;20342;-76
2021/11/25 04:41:25;;;;;;;104.15;48.72;;;5.50;99.90;;;;;;5074986;28;20373;-74
2021/11/25 04:43:51;;;;;;;100.65;48.38;;;5.50;99.90;;;;;;5057249;28;20416;-74
2021/11/25 04:46:17;;;;;;;121.38;54.45;;;5.50;99.90;;;;;;5074814;28;20028;-74
2021/11/25 04:48:42;;;;;;;98.75;47.67;;;5.50;99.90;;;;;;5075003;28;20044;-74
2021/11/25 04:51:08;;;;;;;102.28;49.78;;;5.60;99.90;;;;;;5075005;28;20040;-74
2021/11/25 04:53:34;;;;;;;110.95;49.97;;;5.60;99.90;;;;;;5074737;28;20072;-75
2021/11/25 04:55:59;;;;;;;102.85;48.85;;;5.60;99.90;;;;;;5074799;28;20037;-73
2021/11/25 04:58:25;;;;;;;107.55;48.95;;;5.60;99.90;;;;;;5074487;28;20043;-75
2021/11/25 05:00:51;;;;;;;115.55;50.60;;;5.70;99.90;;;;;;5074244;28;20136;-75
2021/11/25 05:03:18;;;;;;;101.47;49.00;;;5.70;99.90;;;;;;5073882;28;20036;-74
2021/11/25 05:05:44;;;;;;;112.15;51.55;;;5.70;99.90;;;;;;5074412;28;20043;-73
2021/11/25 05:08:10;;;;;;;114.45;51.55;;;5.70;99.90;;;;;;5056766;28;20045;-73
2021/11/25 05:10:36;;;;;;;113.75;51.58;;;5.70;99.90;;;;;;5074298;28;20039;-75
2021/11/25 05:13:02;;;;;;;127.82;53.13;;;5.80;99.90;;;;;;5078308;28;20081;-75
2021/11/25 05:15:28;;;;;;;106.82;49.47;;;5.80;99.90;;;;;;5074421;28;20094;-73
2021/11/25 05:17:54;;;;;;;103.70;50.20;;;5.70;99.90;;;;;;5056822;28;20052;-74
2021/11/25 05:20:19;;;;;;;110.95;51.13;;;5.80;99.90;;;;;;5056405;28;20044;-75
2021/11/25 05:22:46;;;;;;;114.00;52.17;;;5.80;99.90;;;;;;5073893;28;20472;-73
2021/11/25 05:25:13;;;;;;;105.82;49.67;;;5.80;99.90;;;;;;5074105;28;20120;-74
2021/11/25 05:27:39;;;;;;;121.70;51.95;;;5.80;99.90;;;;;;5056565;28;20044;-73
2021/11/25 05:30:06;;;;;;;123.13;51.97;;;5.80;99.90;;;;;;5073880;28;20601;-74
2021/11/25 05:32:32;;;;;;;128.57;56.10;;;5.80;99.90;;;;;;5073220;28;20055;-76
2021/11/25 05:34:58;;;;;;;125.03;54.20;;;5.90;99.90;;;;;;5074155;28;20044;-74
2021/11/25 05:37:24;;;;;;;116.25;51.90;;;5.90;99.90;;;;;;5056127;28;20053;-76
2021/11/25 05:39:49;;;;;;;121.82;53.45;;;5.90;99.90;;;;;;5073828;28;20053;-74
2021/11/25 05:42:15;;;;;;;122.80;54.92;;;5.90;99.90;;;;;;5073487;28;20060;-75
2021/11/25 05:44:43;;;;;;;114.03;51.13;;;5.90;99.90;;;;;;5055818;28;20452;-73
2021/11/25 05:47:08;;;;;;;122.75;57.00;;;5.90;99.90;;;;;;5055977;28;20072;-73
2021/11/25 05:49:34;;;;;;;119.72;54.08;;;6.00;99.90;;;;;;5073990;28;20141;-74
2021/11/25 05:52:00;;;;;;;140.45;60.08;;;6.00;99.90;;;;;;5073762;28;20155;-74
2021/11/25 05:54:26;;;;;;;122.97;55.55;;;;;;;;;;5073741;28;20043;-74
2021/11/25 05:56:52;;;;;;;137.32;58.15;;;6.00;99.90;;;;;;5073866;28;20158;-74
2021/11/25 05:59:17;;;;;;;137.27;56.60;;;6.00;99.90;;;;;;5073680;28;20119;-72
2021/11/25 06:01:43;;;;;;;136.57;57.85;;;6.00;99.90;;;;;;5073199;28;20055;-73
2021/11/25 06:04:10;;;;;;;124.18;54.67;;;6.00;99.90;;;;;;5073229;28;20052;-74
2021/11/25 06:06:36;;;;;;;133.45;57.47;;;6.00;99.90;;;;;;5073712;28;20043;-74
2021/11/25 06:09:02;;;;;;;129.40;57.78;;;6.00;99.90;;;;;;5073505;28;20044;-75
2021/11/25 06:11:28;;;;;;;140.27;56.92;;;6.10;99.90;;;;;;5073597;28;20044;-74
2021/11/25 06:13:53;;;;;;;129.88;56.00;;;6.00;99.90;;;;;;5072984;28;20044;-74
2021/11/25 06:16:19;;;;;;;145.88;62.30;;;6.00;99.90;;;;;;5073293;28;20047;-72
2021/11/25 06:18:45;;;;;;;148.15;62.00;;;6.10;99.90;;;;;;5072836;28;20089;-73
2021/11/25 06:21:10;;;;;;;136.27;60.55;;;6.10;99.90;;;;;;5073612;28;20063;-74
2021/11/25 06:23:36;;;;;;;134.10;56.90;;;6.10;99.90;;;;;;5073465;28;20040;-74
2021/11/25 06:26:02;;;;;;;146.80;60.17;;;6.10;99.90;;;;;;5073185;28;20089;-74
2021/11/25 06:28:28;;;;;;;139.40;59.95;;;6.10;99.90;;;;;;5073424;28;20072;-73
2021/11/25 06:30:54;;;;;;;144.88;58.58;;;6.10;99.90;;;;;;5074775;28;20032;-74
2021/11/25 06:33:20;;;;;;;153.52;61.83;;;6.10;99.90;;;;;;5056722;28;20048;-74
2021/11/25 06:35:45;;;;;;;143.73;61.30;;;6.50;99.90;;;;;;5073259;28;20037;-75
2021/11/25 06:38:11;;;;;;;131.75;58.60;;;6.10;99.90;;;;;;5073431;28;20040;-74
2021/11/25 06:40:37;;;;;;;144.55;60.80;;;6.10;99.90;;;;;;5073460;28;20122;-73
2021/11/25 06:43:07;;;;;;;149.75;61.08;;;6.10;99.90;;;;;;5073350;28;20393;-76
2021/11/25 06:45:35;;;;;;;153.18;61.20;;;6.10;99.90;;;;;;5055150;28;20064;-77
2021/11/25 06:48:01;;;;;;;153.00;60.75;;;6.10;99.90;;;;;;5072884;28;20040;-75
2021/11/25 06:50:27;;;;;;;162.25;63.03;;;6.30;99.90;;;;;;5055536;28;20040;-75
2021/11/25 06:52:53;;;;;;;150.98;60.88;;;6.20;99.90;;;;;;5073367;28;20144;-75
2021/11/25 06:55:19;;;;;;;145.70;61.80;;;6.20;99.90;;;;;;5072655;28;20123;-76
2021/11/25 06:57:48;;;;;;;152.55;64.80;;;6.20;99.90;;;;;;5072972;28;20120;-75
2021/11/25 07:00:16;;;;;;;155.80;62.88;;;6.20;99.90;;;;;;5072255;28;20462;-74
2021/11/25 07:02:44;;;;;;;152.05;62.28;;;6.20;99.90;;;;;;5072383;28;20106;-75
2021/11/25 07:05:10;;;;;;;150.68;59.42;;;6.20;99.90;;;;;;5054818;28;20701;-74
2021/11/25 07:07:37;;;;;;;166.15;65.22;;;6.20;99.90;;;;;;5073217;28;20037;-75
2021/11/25 07:10:05;;;;;;;153.40;61.70;;;6.20;99.90;;;;;;5072370;28;20434;-74
2021/11/25 07:12:31;;;;;;;156.05;62.13;;;6.30;99.90;;;;;;5072680;28;20044;-74
2021/11/25 07:14:56;;;;;;;173.10;66.88;;;6.20;99.90;;;;;;5053846;28;20059;-77
2021/11/25 07:17:22;;;;;;;147.52;63.17;;;6.30;99.90;;;;;;5072343;28;20076;-74
2021/11/25 07:19:48;;;;;;;150.75;62.00;;;6.30;99.90;;;;;;5054817;28;20079;-74
2021/11/25 07:22:14;;;;;;;152.18;65.93;;;6.30;99.90;;;;;;5072925;28;20040;-73
2021/11/25 07:24:40;;;;;;;176.70;68.22;;;6.30;99.90;;;;;;5072515;28;20056;-74
2021/11/25 07:27:06;;;;;;;155.88;62.42;;;6.30;99.90;;;;;;5072847;28;20049;-74
2021/11/25 07:29:32;;;;;;;156.60;64.90;;;6.30;99.90;;;;;;5073082;28;20045;-74
2021/11/25 07:31:57;;;;;;;177.38;68.50;;;6.30;99.90;;;;;;5076195;28;20047;-75
2021/11/25 07:34:23;;;;;;;167.40;65.55;;;6.40;99.90;;;;;;5075563;28;20040;-76
2021/11/25 07:36:49;;;;;;;186.13;69.35;;;6.40;99.90;;;;;;5076228;28;20087;-76
2021/11/25 07:39:14;;;;;;;177.77;67.75;;;6.30;99.90;;;;;;5076107;28;20028;-79
2021/11/25 07:41:41;;;;;;;168.65;66.20;;;6.60;99.90;;;;;;5076233;28;20044;-76
2021/11/25 07:44:07;;;;;;;163.25;63.13;;;6.40;99.90;;;;;;5076140;28;20435;-76
2021/11/25 07:46:34;;;;;;;162.25;64.47;;;6.40;99.90;;;;;;5058174;28;20044;-73
2021/11/25 07:49:01;;;;;;;169.25;66.65;;;6.40;99.90;;;;;;5058196;28;20083;-74
2021/11/25 07:51:29;;;;;;;176.63;68.75;;;6.50;99.90;;;;;;5081853;28;20048;-72
2021/11/25 07:53:55;;;;;;;173.80;66.93;;;6.50;99.90;;;;;;5076159;28;20116;-75
2021/11/25 07:56:21;;;;;;;166.82;67.03;;;6.50;99.90;;;;;;5075869;28;20400;-74
2021/11/25 07:58:46;;;;;;;163.82;64.82;;;6.50;99.90;;;;;;5075876;28;20044;-72
2021/11/25 08:01:12;;;;;;;173.20;66.05;;;6.50;99.90;;;;;;5075507;28;20044;-73
2021/11/25 08:03:38;;;;;;;166.63;65.28;;;6.50;99.90;;;;;;5075574;28;20071;-76
2021/11/25 08:06:04;;;;;;;168.75;65.40;;;6.60;99.90;;;;;;5057716;28;20656;-73
2021/11/25 08:08:30;;;;;;;150.27;63.70;;;6.50;99.90;;;;;;5075333;28;20040;-74
2021/11/25 08:10:57;;;;;;;141.68;61.20;;;6.60;99.90;;;;;;5056539;28;20044;-73
2021/11/25 08:13:24;;;;;;;163.82;64.68;;;6.60;99.90;;;;;;5074753;28;20049;-72
2021/11/25 08:15:50;;;;;;;148.63;61.08;;;6.60;99.90;;;;;;5073900;28;20053;-73
2021/11/25 08:18:16;;;;;;;157.60;61.83;;;6.70;99.90;;;;;;5073886;28;20048;-74
2021/11/25 08:20:41;;;;;;;149.50;62.42;;;7.20;99.90;;;;;;5074674;28;20135;-73
2021/11/25 08:23:08;;;;;;;154.60;61.15;;;6.70;99.90;;;;;;5074643;28;20124;-72
2021/11/25 08:25:34;;;;;;;129.43;59.60;;;6.60;99.90;;;;;;5073533;28;20044;-75
2021/11/25 08:28:01;;;;;;;147.13;60.40;;;6.50;99.90;;;;;;5074496;28;20040;-71
2021/11/25 08:30:29;;;;;;;159.20;63.58;;;6.70;99.90;;;;;;5056810;28;20082;-73
2021/11/25 08:32:55;;;;;;;157.15;62.38;;;6.80;99.90;;;;;;5056190;28;20464;-74
2021/11/25 08:35:21;;;;;;;148.48;62.10;;;6.80;99.90;;;;;;5074357;28;20044;-74
2021/11/25 08:37:46;;;;;;;167.32;63.58;;;6.80;99.90;;;;;;5073982;28;20334;-75
2021/11/25 08:40:14;;;;;;;145.10;60.17;;;7.00;99.90;;;;;;5055770;28;20049;-73
2021/11/25 08:42:41;;;;;;;138.50;59.35;;;6.80;99.90;;;;;;5074148;28;20040;-73
2021/11/25 08:45:07;;;;;;;137.98;58.70;;;6.80;99.90;;;;;;5055742;28;20468;-75
2021/11/25 08:47:33;;;;;;;136.60;59.70;;;6.90;99.90;;;;;;5072820;28;20425;-73
2021/11/25 08:49:59;;;;;;;132.75;56.08;;;6.90;99.90;;;;;;5073796;28;20051;-72
2021/11/25 08:52:25;;;;;;;142.32;60.60;;;6.80;99.90;;;;;;5073821;28;20059;-74
2021/11/25 08:54:50;;;;;;;150.23;60.80;;;6.90;99.90;;;;;;5073481;28;20048;-75
2021/11/25 08:57:17;;;;;;;154.40;59.92;;;7.00;99.90;;;;;;5079913;28;20493;-74
2021/11/25 08:59:43;;;;;;;128.93;55.35;;;6.90;99.90;;;;;;5082918;28;20047;-72
2021/11/25 09:02:10;;;;;;;127.90;56.70;;;6.90;99.90;;;;;;5068768;28;20063;-74
2021/11/25 09:04:37;;;;;;;156.57;62.75;;;7.50;99.90;;;;;;5083159;28;20128;-74
2021/11/25 09:07:03;;;;;;;143.05;58.15;;;7.10;99.90;;;;;;5082502;28;20044;-74
2021/11/25 09:09:30;;;;;;;153.95;59.33;;;7.10;99.90;;;;;;5076356;28;20051;-73
2021/11/25 09:11:55;;;;;;;132.77;56.55;;;7.10;99.90;;;;;;5077326;28;20048;-75
2021/11/25 09:14:21;;;;;;;127.70;54.05;;;7.20;99.90;;;;;;5093851;28;20516;-74
2021/11/25 09:16:47;;;;;;;105.82;48.67;;;7.10;99.90;;;;;;5075513;28;20044;-74
2021/11/25 09:19:13;;;;;;;138.30;53.67;;;7.90;99.90;;;;;;5093711;28;20494;-72
2021/11/25 09:21:39;;;;;;;111.70;49.28;;;7.30;99.90;;;;;;5093835;28;20115;-75
2021/11/25 09:24:07;;;;;;;129.25;52.80;;;7.30;99.90;;;;;;5075903;28;20444;-73
2021/11/25 09:26:34;;;;;;;123.75;50.85;;;7.30;99.90;;;;;;5093517;28;20043;-74
2021/11/25 09:29:01;;;;;;;114.45;49.65;;;7.40;99.90;;;;;;5093635;28;20044;-73
2021/11/25 09:31:28;;;;;;;102.90;47.90;;;7.40;99.90;;;;;;5093388;28;20624;-74
2021/11/25 09:33:54;;;;;;;123.85;51.90;;;7.50;99.90;;;;;;5094224;28;20123;-73
2021/11/25 09:36:21;;;;;;;100.40;47.90;;;7.50;99.90;;;;;;5094235;28;20447;-74
2021/11/25 09:38:47;;;;;;;109.05;50.40;;;7.60;99.90;;;;;;5094363;28;20048;-74
2021/11/25 09:41:14;;;;;;;122.72;52.05;;;7.80;99.90;;;;;;5076476;28;20119;-73
2021/11/25 09:43:40;;;;;;;133.90;55.03;;;7.70;99.90;;;;;;5094333;28;20425;-74
2021/11/25 09:46:08;;;;;;;112.72;50.40;;;7.70;99.90;;;;;;5094020;28;20036;-72
2021/11/25 09:48:34;;;;;;;129.85;54.45;;;7.80;99.90;;;;;;5093371;28;20047;-73
2021/11/25 09:51:00;;;;;;;106.05;48.63;;;7.80;99.90;;;;;;5093977;28;20051;-74
2021/11/25 09:53:27;;;;;;;92.90;47.30;;;7.80;99.90;;;;;;5058231;28;20052;-75
2021/11/25 09:55:55;;;;;;;107.03;50.40;;;7.90;99.90;;;;;;5093865;28;20445;-73
2021/11/25 09:58:24;;;;;;;97.78;43.95;;;7.90;99.90;;;;;;5093340;28;20111;-74
2021/11/25 10:01:07;;;;;;;88.88;42.67;;;8.60;99.90;;;;;;5093431;28;20090;-77
2021/11/25 10:03:36;;;;;;;81.78;42.47;;;8.00;99.90;;;;;;5075512;28;20060;-74
2021/11/25 10:06:03;;;;;;;92.65;44.05;;;8.00;99.90;;;;;;5093960;28;20048;-75
2021/11/25 10:08:44;;;;;;;79.95;41.40;;;8.10;99.90;;;;;;5093491;28;20517;-73
2021/11/25 10:11:12;;;;;;;78.68;38.90;;;8.20;99.90;;;;;;5088290;28;20174;-75
2021/11/25 10:13:43;;;;;;;73.20;37.13;;;8.30;99.90;;;;;;5083613;28;20096;-75
2021/11/25 10:16:12;;;;;;;67.88;34.20;;;8.40;99.90;;;;;;5085301;28;20425;-75
2021/11/25 10:18:39;;;;;;;67.13;33.53;;;8.50;99.90;;;;;;5082823;28;20513;-74
2021/11/25 10:21:12;;;;;;;64.88;32.03;;;8.70;99.90;;;;;;5081888;28;20036;-74
2021/11/25 10:23:39;;;;;;;65.22;31.60;;;8.80;99.90;;;;;;5083145;28;20040;-75
2021/11/25 10:26:10;;;;;;;63.78;30.27;;;8.90;99.90;;;;;;5066125;28;20048;-74
2021/11/25 10:28:47;;;;;;;49.20;27.98;;;9.10;99.90;;;;;;5092185;28;20035;-73
2021/11/25 10:31:38;;;;;;;54.35;26.23;;;9.20;99.90;;;;;;5074502;28;20697;-75
2021/11/25 10:34:15;;;;;;;45.25;23.58;;;9.20;99.90;;;;;;5055283;28;20088;-73
2021/11/25 10:42:08;;;;;;;30.85;13.98;;;9.50;99.90;;;;;;5073333;28;20410;-73
2021/11/25 10:44:39;;;;;;;31.20;14.05;;;9.50;99.90;;;;;;5073396;28;20041;-73
2021/11/25 10:47:10;;;;;;;31.98;12.63;;;9.60;99.90;;;;;;5073198;28;20371;-75
2021/11/25 10:49:49;;;;;;;20.30;11.20;;;9.70;99.90;;;;;;5072955;28;20128;-74
2021/11/25 10:52:20;;;;;;;15.55;8.30;;;9.70;99.90;;;;;;5073092;28;20040;-74
2021/11/25 10:54:55;;;;;;;16.00;6.45;;;9.70;99.90;;;;;;5055554;28;20041;-74
2021/11/25 10:57:23;;;;;;;17.92;7.00;;;9.70;99.90;;;;;;5073304;28;20118;-74
2021/11/25 10:59:51;;;;;;;23.75;6.70;;;9.70;99.90;;;;;;5072952;28;20098;-76
2021/11/25 11:02:22;;;;;;;19.20;6.28;;;9.70;99.90;;;;;;5083455;28;20056;-75
2021/11/25 11:04:48;;;;;;;15.50;3.65;;;9.80;99.90;;;;;;5095966;28;20044;-74
2021/11/25 11:07:27;;;;;;;15.73;2.65;;;9.80;99.90;;;;;;5097055;28;20044;-74
2021/11/25 11:09:53;;;;;;;15.98;3.53;;;9.90;99.90;;;;;;5096728;28;20062;-76
2021/11/25 11:12:42;;;;;;;9.43;2.25;;;9.80;99.90;;;;;;5079177;28;20048;-74
2021/11/25 11:15:27;;;;;;;12.07;2.20;;;9.80;99.90;;;;;;5097569;28;20052;-73
2021/11/25 11:20:48;;;;;;;10.52;2.90;;;9.90;99.90;;;;;;5078336;28;20083;-74
2021/11/25 11:23:16;;;;;;;17.20;2.70;;;9.90;99.90;;;;;;5078608;28;20044;-73
2021/11/25 11:25:42;;;;;;;10.55;2.03;;;10.00;99.90;;;;;;5097058;28;20130;-74
2021/11/25 11:28:10;;;;;;;11.13;2.50;;;10.40;99.90;;;;;;5079299;28;20092;-74
2021/11/25 11:30:36;;;;;;;20.13;2.42;;;11.00;99.90;;;;;;5079104;28;20044;-73
2021/11/25 11:33:08;;;;;;;13.63;2.35;;;11.70;99.90;;;;;;5097350;28;20438;-74
2021/11/25 11:35:35;;;;;;;9.27;1.95;;;11.30;99.90;;;;;;5097489;28;20093;-75
2021/11/25 11:38:02;;;;;;;11.27;2.25;;;11.10;99.90;;;;;;5097690;28;20047;-76
2021/11/25 11:40:32;;;;;;;11.25;2.25;;;10.80;99.90;;;;;;5096882;28;20047;-76
2021/11/25 11:42:59;;;;;;;9.30;1.80;;;10.50;99.90;;;;;;5097281;28;20123;-74
2021/11/25 11:45:27;;;;;;;10.70;2.38;;;10.50;99.90;;;;;;5097739;28;20503;-74
2021/11/25 11:47:55;;;;;;;12.88;1.73;;;11.30;99.90;;;;;;5098720;28;20036;-74
2021/11/25 11:50:54;;;;;;;8.07;1.52;;;12.70;99.90;;;;;;5096441;28;20429;-76
2021/11/25 11:53:21;;;;;;;6.63;1.88;;;14.20;99.90;;;;;;5033781;28;20057;-75
2021/11/25 11:56:01;;;;;;;6.28;1.20;;;15.40;98.80;;;;;;5033341;28;20166;-74
2021/11/25 11:58:36;;;;;;;6.55;1.80;;;16.30;99.90;;;;;;5033590;28;20073;-74
2021/11/25 12:01:15;;;;;;;7.28;1.40;;;17.00;94.50;;;;;;5034014;28;20447;-74
2021/11/25 12:03:43;;;;;;;5.07;1.08;;;13.90;95.50;;;;;;5037693;28;20049;-76
2021/11/25 12:06:09;;;;;;;5.53;1.10;;;13.80;98.40;;;;;;5037340;28;20181;-74
2021/11/25 12:08:35;;;;;;;5.10;1.00;;;13.10;99.90;;;;;;5034672;28;20073;-73
2021/11/25 12:11:01;;;;;;;8.40;1.30;;;11.90;99.90;;;;;;5026312;28;20080;-75
2021/11/25 12:13:29;;;;;;;5.25;1.05;;;11.50;99.90;;;;;;5024174;28;20466;-75
2021/11/25 12:16:16;;;;;;;9.27;1.33;;;11.00;99.90;;;;;;5028673;28;20060;-74
2021/11/25 12:19:04;;;;;;;7.00;1.80;;;10.40;99.90;;;;;;5035221;28;20569;-74
2021/11/25 12:21:44;;;;;;;8.07;1.30;;;10.40;99.90;;;;;;5035507;28;20060;-73
2021/11/25 12:24:12;;;;;;;8.32;1.60;;;10.20;99.90;;;;;;5035585;28;20072;-75
2021/11/25 12:27:11;;;;;;;7.03;1.30;;;10.10;99.90;;;;;;5035956;28;20444;-76
2021/11/25 12:29:39;;;;;;;7.50;1.50;;;10.50;99.90;;;;;;5056163;28;20051;-76
2021/11/25 12:35:01;;;;;;;11.70;1.75;;;13.50;99.90;;;;;;5076821;28;20055;-77
2021/11/25 12:37:42;;;;;;;14.40;3.50;;;13.90;99.90;;;;;;5070167;28;20041;-74
2021/11/25 12:40:28;;;;;;;15.93;2.30;;;13.50;99.90;;;;;;5077519;28;20056;-74
2021/11/25 12:43:00;;;;;;;12.32;2.25;;;13.20;99.90;;;;;;5069589;28;20151;-78
2021/11/25 12:45:39;;;;;;;7.82;2.17;;;14.20;99.90;;;;;;5074400;28;20456;-76
2021/11/25 12:50:40;;;;;;;8.35;1.55;;;14.50;99.90;;;;;;5073991;28;20048;-76
2021/11/25 12:53:11;;;;;;;11.10;2.25;;;13.90;99.90;;;;;;5074599;28;20052;-78
2021/11/25 12:55:38;;;;;;;13.70;2.05;;;13.40;99.90;;;;;;5056420;28;20102;-76